createdAt,value
2022-12-31T00:01:17.428Z,11.61
2022-12-31T00:03:47.626Z,11.59
2022-12-31T00:06:21.303Z,11.70
2022-12-31T00:08:49.679Z,11.76
2022-12-31T00:11:18.328Z,11.75
2022-12-31T00:13:47.562Z,11.75
2022-12-31T00:16:17.416Z,11.77
2022-12-31T00:18:48.719Z,11.80
2022-12-31T00:21:20.618Z,11.82
2022-12-31T00:23:49.282Z,11.81
2022-12-31T00:26:19.098Z,11.83
2022-12-31T00:28:47.498Z,11.77
2022-12-31T00:31:17.476Z,11.72
2022-12-31T00:33:47.226Z,11.72
2022-12-31T00:36:17.984Z,11.71
2022-12-31T00:38:49.323Z,11.70
2022-12-31T00:41:18.837Z,11.68
2022-12-31T00:43:47.721Z,11.69
2022-12-31T00:46:17.352Z,11.69
2022-12-31T00:48:49.508Z,11.69
2022-12-31T00:51:20.320Z,11.68
2022-12-31T00:53:48.654Z,11.74
2022-12-31T00:56:20.795Z,11.75
2022-12-31T00:58:49.297Z,11.80
2022-12-31T01:01:19.779Z,11.85
2022-12-31T01:03:54.595Z,11.94
2022-12-31T01:06:23.376Z,11.94
2022-12-31T01:08:55.363Z,12.09
2022-12-31T01:11:24.482Z,12.14
2022-12-31T01:13:54.360Z,12.20
2022-12-31T01:16:26.770Z,12.26
2022-12-31T01:18:56.932Z,12.32
2022-12-31T01:21:24.860Z,12.32
2022-12-31T01:23:53.181Z,12.39
2022-12-31T01:26:21.751Z,12.55
2022-12-31T01:28:50.123Z,12.58
2022-12-31T01:31:20.357Z,12.61
2022-12-31T01:33:51.547Z,12.70
2022-12-31T01:37:41.334Z,12.59
2022-12-31T01:40:10.356Z,12.51
2022-12-31T01:42:41.184Z,12.48
2022-12-31T01:45:12.670Z,12.44
2022-12-31T01:47:45.641Z,12.49
2022-12-31T01:50:22.418Z,12.66
2022-12-31T01:52:55.977Z,12.98
2022-12-31T01:55:28.814Z,13.13
2022-12-31T01:58:00.308Z,13.36
2022-12-31T02:00:28.266Z,13.59
2022-12-31T02:02:56.850Z,13.63
2022-12-31T02:05:31.996Z,13.63
2022-12-31T02:08:01.750Z,13.68
2022-12-31T02:10:29.733Z,13.69
2022-12-31T02:12:58.559Z,13.68
2022-12-31T02:15:40.515Z,13.48
2022-12-31T02:18:19.267Z,13.26
2022-12-31T02:21:20.720Z,13.26
2022-12-31T02:24:16.229Z,13.06
2022-12-31T02:26:58.263Z,13.06
2022-12-31T02:30:03.734Z,13.15
2022-12-31T02:32:44.124Z,13.16
2022-12-31T02:35:20.696Z,13.10
2022-12-31T02:37:53.117Z,13.06
2022-12-31T02:40:23.918Z,13.08
2022-12-31T02:42:55.507Z,13.02
2022-12-31T02:45:32.192Z,13.01
2022-12-31T02:48:15.077Z,12.95
2022-12-31T02:50:56.496Z,12.94
2022-12-31T02:53:43.700Z,12.98
2022-12-31T02:56:20.756Z,13.03
2022-12-31T02:59:16.810Z,13.05
2022-12-31T03:02:09.674Z,13.11
2022-12-31T03:04:37.747Z,13.05
2022-12-31T03:07:08.835Z,13.01
2022-12-31T03:09:37.665Z,13.03
2022-12-31T03:12:25.340Z,13.06
2022-12-31T03:14:53.886Z,13.11
2022-12-31T03:17:23.398Z,13.01
2022-12-31T03:20:09.435Z,13.02
2022-12-31T03:22:42.242Z,13.05
2022-12-31T03:25:30.975Z,13.08
2022-12-31T03:27:59.914Z,13.09
2022-12-31T03:30:28.321Z,13.14
2022-12-31T03:32:57.749Z,13.15
2022-12-31T03:35:27.611Z,13.16
2022-12-31T03:37:56.710Z,13.22
2022-12-31T03:40:26.810Z,13.19
2022-12-31T03:42:55.128Z,13.16
2022-12-31T03:45:25.637Z,13.16
2022-12-31T03:47:53.566Z,13.22
2022-12-31T03:50:23.255Z,13.20
2022-12-31T03:52:53.103Z,13.22
2022-12-31T03:55:21.221Z,13.26
2022-12-31T03:57:51.359Z,13.33
2022-12-31T04:00:21.957Z,13.39
2022-12-31T04:02:51.676Z,13.44
2022-12-31T04:05:20.209Z,13.39
2022-12-31T04:07:52.150Z,13.46
2022-12-31T04:10:21.253Z,13.49
2022-12-31T04:12:49.590Z,13.62
2022-12-31T04:15:19.906Z,13.71
2022-12-31T04:17:49.432Z,13.76
2022-12-31T04:20:17.995Z,13.74
2022-12-31T04:22:49.632Z,13.69
2022-12-31T04:25:17.738Z,13.82
2022-12-31T04:27:45.877Z,14.09
2022-12-31T04:30:18.780Z,14.19
2022-12-31T04:32:46.952Z,14.23
2022-12-31T04:35:14.916Z,14.28
2022-12-31T04:37:42.888Z,14.30
2022-12-31T04:40:12.941Z,14.28
2022-12-31T04:42:41.084Z,14.25
2022-12-31T04:45:09.764Z,14.24
2022-12-31T04:47:38.097Z,14.26
2022-12-31T04:50:07.268Z,14.23
2022-12-31T04:52:42.083Z,14.25
2022-12-31T04:55:12.839Z,14.22
2022-12-31T04:57:42.193Z,14.18
2022-12-31T05:00:11.398Z,14.13
2022-12-31T05:02:41.704Z,14.28
2022-12-31T05:05:10.542Z,14.30
2022-12-31T05:07:38.783Z,14.29
2022-12-31T05:10:07.856Z,14.26
2022-12-31T05:12:37.387Z,14.17
2022-12-31T05:15:06.272Z,14.20
2022-12-31T05:17:34.351Z,14.20
2022-12-31T05:20:06.060Z,14.14
2022-12-31T05:22:34.172Z,14.30
2022-12-31T05:25:02.263Z,14.26
2022-12-31T05:27:32.069Z,14.26
2022-12-31T05:30:01.824Z,14.24
2022-12-31T05:32:32.532Z,14.27
2022-12-31T05:35:01.209Z,14.34
2022-12-31T05:37:30.546Z,14.43
2022-12-31T05:39:58.906Z,14.45
2022-12-31T05:42:27.298Z,14.45
2022-12-31T05:44:55.535Z,14.59
2022-12-31T05:47:25.142Z,14.79
2022-12-31T05:49:55.396Z,14.79
2022-12-31T05:52:23.575Z,14.74
2022-12-31T05:54:53.279Z,14.80
2022-12-31T05:57:21.240Z,14.94
2022-12-31T05:59:49.462Z,15.01
2022-12-31T06:02:20.755Z,14.94
2022-12-31T06:04:50.059Z,14.87
2022-12-31T06:07:18.146Z,14.76
2022-12-31T06:09:46.047Z,14.74
2022-12-31T06:12:16.447Z,14.68
2022-12-31T06:14:45.918Z,14.74
2022-12-31T06:17:16.289Z,14.68
2022-12-31T06:19:49.793Z,14.77
2022-12-31T06:22:17.787Z,14.79
2022-12-31T06:24:45.910Z,14.78
2022-12-31T06:27:13.918Z,14.77
2022-12-31T06:29:45.833Z,14.71
2022-12-31T06:32:13.823Z,14.73
2022-12-31T06:34:41.809Z,14.73
2022-12-31T06:38:43.789Z,14.56
2022-12-31T06:41:14.492Z,14.53
2022-12-31T06:43:43.818Z,14.52
2022-12-31T06:46:16.142Z,14.44
2022-12-31T06:48:45.039Z,14.44
2022-12-31T06:51:20.353Z,14.35
2022-12-31T06:53:51.106Z,14.46
2022-12-31T06:56:23.368Z,14.41
2022-12-31T06:58:57.056Z,14.44
2022-12-31T07:01:35.094Z,14.61
2022-12-31T07:04:20.219Z,14.52
2022-12-31T07:06:53.291Z,14.44
2022-12-31T07:09:31.328Z,14.39
2022-12-31T07:12:07.455Z,14.32
2022-12-31T07:14:39.843Z,14.25
2022-12-31T07:17:19.471Z,14.21
2022-12-31T07:19:58.150Z,14.11
2022-12-31T07:22:31.616Z,14.02
2022-12-31T07:25:04.522Z,13.92
2022-12-31T07:27:43.568Z,14.02
2022-12-31T07:30:16.011Z,13.96
2022-12-31T07:33:04.717Z,13.98
2022-12-31T07:35:42.031Z,14.05
2022-12-31T07:38:27.537Z,14.16
2022-12-31T07:41:09.716Z,14.21
2022-12-31T07:43:52.815Z,14.20
2022-12-31T07:46:29.856Z,14.35
2022-12-31T07:48:58.684Z,14.36
2022-12-31T07:51:29.992Z,14.39
2022-12-31T07:53:58.035Z,14.37
2022-12-31T07:56:27.411Z,14.46
2022-12-31T07:59:06.616Z,14.47
2022-12-31T08:01:40.611Z,14.49
2022-12-31T08:04:21.420Z,14.60
2022-12-31T08:06:59.911Z,14.61
2022-12-31T08:09:42.055Z,14.56
2022-12-31T08:12:11.621Z,14.65
2022-12-31T08:14:45.207Z,14.66
2022-12-31T08:17:14.966Z,14.67
2022-12-31T08:19:47.780Z,14.68
2022-12-31T08:22:31.238Z,14.62
2022-12-31T08:25:14.098Z,14.61
2022-12-31T08:27:51.524Z,14.66
2022-12-31T08:30:23.204Z,14.63
2022-12-31T08:32:59.629Z,14.67
2022-12-31T08:35:42.974Z,14.79
2022-12-31T08:38:32.230Z,14.79
2022-12-31T08:41:07.023Z,14.76
2022-12-31T08:43:49.640Z,14.69
2022-12-31T08:46:24.479Z,14.73
2022-12-31T08:48:52.763Z,14.92
2022-12-31T08:51:23.175Z,14.96
2022-12-31T08:53:51.976Z,14.97
2022-12-31T08:56:29.210Z,14.76
2022-12-31T08:59:16.208Z,14.67
2022-12-31T09:01:59.603Z,14.62
2022-12-31T09:04:41.556Z,14.59
2022-12-31T09:07:11.997Z,14.48
2022-12-31T09:09:46.566Z,14.52
2022-12-31T09:12:23.252Z,14.53
2022-12-31T09:15:01.547Z,14.59
2022-12-31T09:17:43.512Z,14.69
2022-12-31T09:20:17.880Z,14.70
2022-12-31T09:22:46.221Z,14.85
2022-12-31T09:25:16.335Z,14.99
2022-12-31T09:27:51.624Z,15.05
2022-12-31T09:30:21.186Z,15.19
2022-12-31T09:33:01.277Z,15.30
2022-12-31T09:35:37.905Z,15.42
2022-12-31T09:38:14.522Z,15.69
2022-12-31T09:40:59.678Z,15.92
2022-12-31T09:44:03.779Z,15.97
2022-12-31T09:46:52.350Z,16.15
2022-12-31T09:49:57.415Z,16.31
2022-12-31T09:52:40.001Z,16.57
2022-12-31T09:55:29.167Z,16.49
2022-12-31T09:58:13.307Z,16.82
2022-12-31T10:00:47.920Z,16.75
2022-12-31T10:03:32.951Z,16.73
2022-12-31T10:06:19.073Z,16.50
2022-12-31T10:09:03.653Z,16.54
2022-12-31T10:11:48.621Z,17.27
2022-12-31T10:14:33.657Z,17.71
2022-12-31T10:17:17.264Z,17.84
2022-12-31T10:20:07.088Z,18.34
2022-12-31T10:23:21.703Z,18.84
2022-12-31T10:26:06.988Z,19.19
2022-12-31T10:28:46.023Z,19.16
2022-12-31T10:31:16.508Z,19.63
2022-12-31T10:34:03.955Z,20.22
2022-12-31T10:36:54.089Z,20.15
2022-12-31T10:39:39.012Z,20.57
2022-12-31T10:42:30.422Z,20.34
2022-12-31T10:45:34.482Z,20.98
2022-12-31T10:48:30.797Z,20.76
2022-12-31T10:51:23.016Z,20.50
2022-12-31T10:54:20.808Z,20.32
2022-12-31T10:57:20.515Z,20.94
2022-12-31T11:00:08.656Z,20.91
2022-12-31T11:03:10.369Z,20.91
2022-12-31T11:06:38.680Z,20.89
2022-12-31T11:10:09.787Z,20.48
2022-12-31T11:13:02.612Z,19.78
2022-12-31T11:15:51.310Z,19.45
2022-12-31T11:18:30.719Z,19.06
2022-12-31T11:21:28.028Z,19.05
2022-12-31T11:24:04.986Z,18.70
2022-12-31T11:26:46.266Z,18.65
2022-12-31T11:29:29.637Z,18.46
2022-12-31T11:32:07.613Z,17.99
2022-12-31T11:34:56.501Z,17.83
2022-12-31T11:39:51.252Z,18.07
2022-12-31T11:42:28.035Z,18.19
2022-12-31T11:45:03.534Z,18.02
2022-12-31T11:48:29.112Z,18.37
2022-12-31T11:50:56.126Z,18.17
2022-12-31T11:53:43.713Z,17.80
2022-12-31T11:56:18.638Z,17.85
2022-12-31T11:58:52.416Z,17.69
2022-12-31T12:01:25.692Z,17.64
2022-12-31T12:03:56.268Z,17.72
2022-12-31T12:06:28.336Z,18.05
2022-12-31T12:09:00.668Z,18.32
2022-12-31T12:11:33.731Z,18.60
2022-12-31T12:14:01.981Z,18.80
2022-12-31T12:16:32.433Z,18.61
2022-12-31T12:19:05.202Z,18.68
2022-12-31T12:21:35.826Z,18.68
2022-12-31T12:24:06.900Z,18.50
2022-12-31T12:26:39.825Z,18.35
2022-12-31T12:29:31.084Z,18.31
2022-12-31T12:32:01.459Z,18.37
2022-12-31T12:34:31.999Z,18.30
2022-12-31T12:37:00.191Z,18.29
2022-12-31T12:39:30.942Z,18.21
2022-12-31T12:42:06.263Z,18.34
2022-12-31T12:44:35.720Z,18.15
2022-12-31T12:47:06.227Z,18.07
2022-12-31T12:49:40.873Z,17.85
2022-12-31T12:52:35.025Z,17.83
2022-12-31T12:55:18.365Z,17.85
2022-12-31T12:57:56.021Z,17.98
2022-12-31T13:00:29.665Z,17.82
2022-12-31T13:03:31.040Z,17.74
2022-12-31T13:06:27.225Z,17.81
2022-12-31T13:09:12.789Z,17.79
2022-12-31T13:11:52.237Z,17.75
2022-12-31T13:14:32.806Z,17.81
2022-12-31T13:17:07.074Z,17.77
2022-12-31T13:19:42.591Z,17.81
2022-12-31T13:22:21.364Z,17.75
2022-12-31T13:25:00.092Z,17.77
2022-12-31T13:27:34.862Z,17.75
2022-12-31T13:30:14.143Z,17.70
2022-12-31T13:32:46.353Z,17.59
2022-12-31T13:35:23.896Z,17.48
2022-12-31T13:38:05.022Z,17.37
2022-12-31T13:40:48.812Z,17.29
2022-12-31T13:43:20.944Z,17.12
2022-12-31T13:46:01.608Z,16.99
2022-12-31T13:48:40.385Z,16.87
2022-12-31T13:51:15.051Z,16.77
2022-12-31T13:53:50.182Z,16.74
2022-12-31T13:56:26.557Z,16.64
2022-12-31T13:59:00.992Z,16.72
2022-12-31T14:01:38.067Z,16.71
2022-12-31T14:04:11.275Z,16.85
2022-12-31T14:06:46.656Z,16.83
2022-12-31T14:09:20.919Z,16.86
2022-12-31T14:12:18.677Z,16.83
2022-12-31T14:14:54.476Z,16.76
2022-12-31T14:17:32.928Z,16.73
2022-12-31T14:20:12.940Z,16.63
2022-12-31T14:22:45.603Z,16.50
2022-12-31T14:25:22.426Z,16.34
2022-12-31T14:27:53.574Z,16.01
2022-12-31T14:30:23.669Z,16.18
2022-12-31T14:33:14.852Z,16.16
2022-12-31T14:35:56.825Z,16.09
2022-12-31T14:38:33.430Z,15.97
2022-12-31T14:41:13.708Z,15.89
2022-12-31T14:43:51.721Z,15.88
2022-12-31T14:46:29.797Z,15.75
2022-12-31T14:49:16.478Z,15.82
2022-12-31T14:51:44.783Z,15.82
2022-12-31T14:54:29.014Z,15.67
2022-12-31T14:56:57.349Z,15.52
2022-12-31T14:59:28.851Z,15.43
2022-12-31T15:01:58.152Z,15.36
2022-12-31T15:04:34.721Z,15.28
2022-12-31T15:07:12.003Z,15.23
2022-12-31T15:10:00.478Z,15.19
2022-12-31T15:13:03.177Z,15.15
2022-12-31T15:15:54.791Z,14.96
2022-12-31T15:18:35.916Z,15.04
2022-12-31T15:21:36.908Z,15.00
2022-12-31T15:24:18.729Z,14.95
2022-12-31T15:26:53.557Z,14.90
2022-12-31T15:29:28.828Z,14.84
2022-12-31T15:32:02.494Z,14.81
2022-12-31T15:34:33.706Z,14.75
2022-12-31T15:37:04.732Z,14.71
2022-12-31T15:39:44.349Z,14.64
2022-12-31T15:42:49.212Z,14.57
2022-12-31T15:45:25.307Z,14.52
2022-12-31T15:47:56.061Z,14.40
2022-12-31T15:50:26.453Z,14.23
2022-12-31T15:52:59.009Z,14.37
2022-12-31T15:55:31.076Z,14.56
2022-12-31T15:58:04.986Z,14.49
2022-12-31T16:00:47.066Z,14.33
2022-12-31T16:03:22.927Z,14.20
2022-12-31T16:05:57.752Z,14.09
2022-12-31T16:08:31.170Z,13.98
2022-12-31T16:10:59.923Z,14.02
2022-12-31T16:13:30.293Z,13.94
2022-12-31T16:16:03.946Z,13.96
2022-12-31T16:18:39.643Z,13.87
2022-12-31T16:21:23.241Z,13.80
2022-12-31T16:23:54.506Z,13.77
2022-12-31T16:26:31.102Z,13.61
2022-12-31T16:29:01.209Z,13.74
2022-12-31T16:31:32.392Z,13.71
2022-12-31T16:34:08.346Z,13.82
2022-12-31T16:36:36.471Z,13.91
2022-12-31T16:40:42.831Z,14.12
2022-12-31T16:43:25.808Z,14.16
2022-12-31T16:45:56.031Z,14.16
2022-12-31T16:48:24.379Z,14.19
2022-12-31T16:50:55.474Z,14.12
2022-12-31T16:53:29.843Z,14.03
2022-12-31T16:56:03.782Z,14.00
2022-12-31T16:58:34.335Z,13.98
2022-12-31T17:01:14.670Z,14.13
2022-12-31T17:03:49.088Z,14.22
2022-12-31T17:06:21.425Z,14.65
2022-12-31T17:09:04.586Z,14.58
2022-12-31T17:11:39.431Z,14.55
2022-12-31T17:14:14.577Z,14.58
2022-12-31T17:17:02.062Z,14.64
2022-12-31T17:19:38.796Z,14.68
2022-12-31T17:22:14.136Z,14.51
2022-12-31T17:24:42.633Z,14.56
2022-12-31T17:27:12.270Z,14.50
2022-12-31T17:29:40.283Z,14.46
2022-12-31T17:32:29.125Z,14.31
2022-12-31T17:34:57.026Z,14.16
2022-12-31T17:37:28.344Z,14.18
2022-12-31T17:40:17.021Z,14.06
2022-12-31T17:42:48.128Z,13.94
2022-12-31T17:45:22.713Z,13.90
2022-12-31T17:47:53.927Z,13.86
2022-12-31T17:50:24.800Z,13.86
2022-12-31T17:52:56.920Z,13.76
2022-12-31T17:55:25.427Z,13.69
2022-12-31T17:57:57.776Z,13.64
2022-12-31T18:00:27.659Z,13.52
2022-12-31T18:02:59.018Z,13.43
2022-12-31T18:05:29.913Z,13.41
2022-12-31T18:08:00.499Z,13.49
2022-12-31T18:10:30.878Z,13.37
2022-12-31T18:13:01.724Z,13.31
2022-12-31T18:15:29.648Z,13.27
2022-12-31T18:18:03.148Z,13.42
2022-12-31T18:20:31.060Z,13.71
2022-12-31T18:22:59.325Z,13.82
2022-12-31T18:25:27.317Z,13.92
2022-12-31T18:27:55.547Z,13.90
2022-12-31T18:30:25.627Z,14.19
2022-12-31T18:32:53.716Z,14.19
2022-12-31T18:38:14.998Z,14.09
2022-12-31T18:40:46.786Z,14.17
2022-12-31T18:43:18.739Z,14.10
2022-12-31T18:45:49.689Z,14.03
2022-12-31T18:48:18.101Z,13.99
2022-12-31T18:50:47.425Z,13.97
2022-12-31T18:53:20.361Z,13.96
2022-12-31T18:55:55.665Z,13.85
2022-12-31T18:58:24.807Z,13.72
2022-12-31T19:00:56.468Z,13.77
2022-12-31T19:03:27.494Z,13.90
2022-12-31T19:05:55.542Z,13.78
2022-12-31T19:08:24.980Z,13.74
2022-12-31T19:10:53.874Z,13.87
2022-12-31T19:13:23.265Z,13.86
2022-12-31T19:15:52.841Z,13.89
2022-12-31T19:18:22.228Z,13.90
2022-12-31T19:20:52.256Z,14.02
2022-12-31T19:23:22.547Z,13.97
2022-12-31T19:25:53.229Z,14.14
2022-12-31T19:28:24.835Z,14.06
2022-12-31T19:30:53.573Z,14.03
2022-12-31T19:33:23.059Z,13.80
2022-12-31T19:35:51.114Z,13.65
2022-12-31T19:38:21.918Z,13.48
2022-12-31T19:40:50.628Z,13.36
2022-12-31T19:43:20.730Z,13.23
2022-12-31T19:45:50.454Z,13.05
2022-12-31T19:48:20.612Z,12.90
2022-12-31T19:50:51.422Z,12.71
2022-12-31T19:53:21.703Z,12.59
2022-12-31T19:55:50.805Z,12.52
2022-12-31T19:58:20.557Z,12.38
2022-12-31T20:00:56.842Z,12.29
2022-12-31T20:03:29.416Z,12.18
2022-12-31T20:06:07.796Z,12.07
2022-12-31T20:08:36.666Z,11.89
2022-12-31T20:11:13.600Z,11.75
2022-12-31T20:13:42.774Z,11.60
2022-12-31T20:16:13.394Z,11.46
2022-12-31T20:18:43.403Z,11.45
2022-12-31T20:21:14.575Z,11.31
2022-12-31T20:23:42.558Z,11.17
2022-12-31T20:26:11.615Z,11.02
2022-12-31T20:28:40.095Z,10.98
2022-12-31T20:31:09.195Z,10.84
2022-12-31T20:33:40.111Z,10.76
2022-12-31T20:36:15.074Z,10.76
2022-12-31T20:38:45.999Z,10.71
2022-12-31T20:41:18.179Z,10.71
2022-12-31T20:43:47.099Z,10.68
2022-12-31T20:46:20.246Z,10.75
2022-12-31T20:48:50.422Z,10.70
2022-12-31T20:51:21.839Z,10.58
2022-12-31T20:53:52.014Z,10.50
2022-12-31T20:56:20.108Z,10.50
2022-12-31T20:58:48.740Z,10.58
2022-12-31T21:01:17.817Z,10.67
2022-12-31T21:04:07.116Z,10.74
2022-12-31T21:06:37.566Z,10.73
2022-12-31T21:09:08.772Z,10.67
2022-12-31T21:11:54.958Z,10.62
2022-12-31T21:14:23.144Z,10.61
2022-12-31T21:16:51.205Z,10.72
2022-12-31T21:19:19.323Z,10.81
2022-12-31T21:21:49.790Z,10.86
2022-12-31T21:24:23.845Z,10.83
2022-12-31T21:26:52.589Z,10.80
2022-12-31T21:29:20.503Z,10.81
2022-12-31T21:31:49.055Z,10.83
2022-12-31T21:34:19.293Z,10.93
2022-12-31T21:36:48.786Z,10.96
2022-12-31T21:41:53.129Z,10.95
2022-12-31T21:44:22.465Z,10.87
2022-12-31T21:47:32.859Z,10.96
2022-12-31T21:49:38.749Z,10.95
2022-12-31T21:52:24.009Z,10.80
2022-12-31T21:55:09.604Z,10.68
2022-12-31T21:58:07.198Z,10.59
2022-12-31T22:00:44.476Z,10.45
2022-12-31T22:03:27.829Z,10.36
2022-12-31T22:05:59.653Z,10.33
2022-12-31T22:08:28.490Z,10.29
2022-12-31T22:10:56.760Z,10.34
2022-12-31T22:13:26.385Z,10.30
2022-12-31T22:16:01.835Z,10.30
2022-12-31T22:18:34.527Z,10.16
2022-12-31T22:21:04.038Z,10.10
2022-12-31T22:23:33.231Z,10.09
2022-12-31T22:26:01.524Z,10.08
2022-12-31T22:28:38.989Z,9.96
2022-12-31T22:31:08.276Z,9.90
2022-12-31T22:33:38.845Z,9.76
2022-12-31T22:36:13.649Z,9.65
2022-12-31T22:38:42.388Z,9.64
2022-12-31T22:41:14.654Z,9.66
2022-12-31T22:43:46.668Z,9.67
2022-12-31T22:46:16.803Z,9.73
2022-12-31T22:48:47.459Z,9.84
2022-12-31T22:51:17.045Z,10.02
2022-12-31T22:53:45.506Z,10.06
2022-12-31T22:56:16.100Z,10.19
2022-12-31T22:58:48.242Z,10.49
2022-12-31T23:01:18.961Z,10.54
2022-12-31T23:03:47.448Z,10.51
2022-12-31T23:06:16.166Z,10.37
2022-12-31T23:09:04.671Z,10.36
2022-12-31T23:11:33.357Z,10.29
2022-12-31T23:14:23.594Z,10.15
2022-12-31T23:17:31.542Z,10.09
2022-12-31T23:20:18.450Z,10.15
2022-12-31T23:23:08.808Z,10.06
2022-12-31T23:25:42.139Z,10.06
2022-12-31T23:28:13.912Z,10.00
2022-12-31T23:30:44.213Z,10.07
2022-12-31T23:33:16.349Z,9.93
2022-12-31T23:35:44.829Z,9.97
2022-12-31T23:38:13.430Z,9.97
2022-12-31T23:40:41.788Z,9.87
2022-12-31T23:43:19.240Z,9.92
2022-12-31T23:45:52.759Z,9.86
2022-12-31T23:48:21.176Z,9.77
2022-12-31T23:50:53.864Z,9.64
2022-12-31T23:53:25.275Z,9.67
2022-12-31T23:55:54.008Z,9.65
2022-12-31T23:58:23.092Z,9.74
